sensor_id;sensor_type;location;lat;lon;timestamp;P1;durP1;ratioP1;P2;durP2;ratioP2
40453;SDS011;26160;51.858;4.398;2023-08-06T00:00:29;12.70;;;9.40;;
40453;SDS011;26160;51.858;4.398;2023-08-06T00:02:55;13.63;;;10.02;;
40453;SDS011;26160;51.858;4.398;2023-08-06T00:05:21;12.73;;;9.32;;
40453;SDS011;26160;51.858;4.398;2023-08-06T00:07:47;12.77;;;9.75;;
40453;SDS011;26160;51.858;4.398;2023-08-06T00:10:14;14.48;;;10.80;;
40453;SDS011;26160;51.858;4.398;2023-08-06T00:12:40;12.85;;;9.73;;
40453;SDS011;26160;51.858;4.398;2023-08-06T00:15:06;13.70;;;10.27;;
40453;SDS011;26160;51.858;4.398;2023-08-06T00:17:33;16.92;;;11.50;;
40453;SDS011;26160;51.858;4.398;2023-08-06T00:20:00;23.08;;;13.85;;
40453;SDS011;26160;51.858;4.398;2023-08-06T00:22:31;20.15;;;13.52;;
40453;SDS011;26160;51.858;4.398;2023-08-06T00:25:01;15.30;;;11.82;;
40453;SDS011;26160;51.858;4.398;2023-08-06T00:27:27;23.83;;;15.93;;
40453;SDS011;26160;51.858;4.398;2023-08-06T00:29:54;24.20;;;15.82;;
40453;SDS011;26160;51.858;4.398;2023-08-06T00:32:20;22.17;;;15.43;;
40453;SDS011;26160;51.858;4.398;2023-08-06T00:34:47;15.80;;;13.45;;
40453;SDS011;26160;51.858;4.398;2023-08-06T00:37:15;17.23;;;13.77;;
40453;SDS011;26160;51.858;4.398;2023-08-06T00:39:42;14.80;;;12.90;;
40453;SDS011;26160;51.858;4.398;2023-08-06T00:42:09;18.35;;;12.80;;
40453;SDS011;26160;51.858;4.398;2023-08-06T00:44:36;20.77;;;15.10;;
40453;SDS011;26160;51.858;4.398;2023-08-06T00:47:03;16.85;;;13.07;;
40453;SDS011;26160;51.858;4.398;2023-08-06T00:49:29;17.50;;;14.02;;
40453;SDS011;26160;51.858;4.398;2023-08-06T00:51:56;20.05;;;14.18;;
40453;SDS011;26160;51.858;4.398;2023-08-06T00:54:23;19.02;;;15.43;;
40453;SDS011;26160;51.858;4.398;2023-08-06T00:56:50;16.83;;;13.27;;
40453;SDS011;26160;51.858;4.398;2023-08-06T00:59:16;17.60;;;14.63;;
40453;SDS011;26160;51.858;4.398;2023-08-06T01:04:12;15.13;;;12.82;;
40453;SDS011;26160;51.858;4.398;2023-08-06T01:06:42;17.90;;;14.35;;
40453;SDS011;26160;51.858;4.398;2023-08-06T01:09:24;16.83;;;14.38;;
40453;SDS011;26160;51.858;4.398;2023-08-06T01:12:08;17.55;;;12.02;;
40453;SDS011;26160;51.858;4.398;2023-08-06T01:17:40;17.92;;;14.15;;
40453;SDS011;26160;51.858;4.398;2023-08-06T01:20:06;16.85;;;13.43;;
40453;SDS011;26160;51.858;4.398;2023-08-06T01:22:33;13.27;;;11.27;;
40453;SDS011;26160;51.858;4.398;2023-08-06T01:24:59;12.45;;;11.07;;
40453;SDS011;26160;51.858;4.398;2023-08-06T01:27:28;14.73;;;12.00;;
40453;SDS011;26160;51.858;4.398;2023-08-06T01:30:12;15.77;;;11.48;;
40453;SDS011;26160;51.858;4.398;2023-08-06T01:32:49;21.83;;;14.25;;
40453;SDS011;26160;51.858;4.398;2023-08-06T01:35:19;11.10;;;8.35;;
40453;SDS011;26160;51.858;4.398;2023-08-06T01:37:47;13.77;;;11.15;;
40453;SDS011;26160;51.858;4.398;2023-08-06T01:40:14;11.82;;;10.20;;
40453;SDS011;26160;51.858;4.398;2023-08-06T01:42:40;17.48;;;13.23;;
40453;SDS011;26160;51.858;4.398;2023-08-06T01:45:07;11.38;;;10.23;;
40453;SDS011;26160;51.858;4.398;2023-08-06T01:47:34;15.60;;;12.35;;
40453;SDS011;26160;51.858;4.398;2023-08-06T01:50:00;13.70;;;12.30;;
40453;SDS011;26160;51.858;4.398;2023-08-06T01:52:27;15.38;;;12.05;;
40453;SDS011;26160;51.858;4.398;2023-08-06T01:54:54;16.85;;;14.15;;
40453;SDS011;26160;51.858;4.398;2023-08-06T01:57:20;19.70;;;14.63;;
40453;SDS011;26160;51.858;4.398;2023-08-06T01:59:46;16.58;;;14.80;;
40453;SDS011;26160;51.858;4.398;2023-08-06T02:02:12;15.05;;;13.45;;
40453;SDS011;26160;51.858;4.398;2023-08-06T02:04:39;15.93;;;13.73;;
40453;SDS011;26160;51.858;4.398;2023-08-06T02:07:05;18.40;;;14.95;;
40453;SDS011;26160;51.858;4.398;2023-08-06T02:09:31;18.23;;;15.23;;
40453;SDS011;26160;51.858;4.398;2023-08-06T02:11:57;16.77;;;14.45;;
40453;SDS011;26160;51.858;4.398;2023-08-06T02:14:23;19.90;;;15.13;;
40453;SDS011;26160;51.858;4.398;2023-08-06T02:16:49;14.25;;;12.85;;
40453;SDS011;26160;51.858;4.398;2023-08-06T02:19:15;27.35;;;18.60;;
40453;SDS011;26160;51.858;4.398;2023-08-06T02:21:42;24.67;;;17.92;;
40453;SDS011;26160;51.858;4.398;2023-08-06T02:24:08;18.50;;;16.15;;
40453;SDS011;26160;51.858;4.398;2023-08-06T02:26:34;25.80;;;20.27;;
40453;SDS011;26160;51.858;4.398;2023-08-06T02:29:00;24.10;;;19.25;;
40453;SDS011;26160;51.858;4.398;2023-08-06T02:31:26;27.38;;;20.15;;
40453;SDS011;26160;51.858;4.398;2023-08-06T02:33:52;33.47;;;24.10;;
40453;SDS011;26160;51.858;4.398;2023-08-06T02:36:19;19.42;;;17.40;;
40453;SDS011;26160;51.858;4.398;2023-08-06T02:38:45;26.15;;;20.83;;
40453;SDS011;26160;51.858;4.398;2023-08-06T02:41:12;18.27;;;16.05;;
40453;SDS011;26160;51.858;4.398;2023-08-06T02:43:38;22.20;;;19.67;;
40453;SDS011;26160;51.858;4.398;2023-08-06T02:46:04;30.42;;;22.13;;
40453;SDS011;26160;51.858;4.398;2023-08-06T02:48:30;24.95;;;21.20;;
40453;SDS011;26160;51.858;4.398;2023-08-06T02:50:59;25.90;;;21.73;;
40453;SDS011;26160;51.858;4.398;2023-08-06T02:53:25;26.58;;;22.63;;
40453;SDS011;26160;51.858;4.398;2023-08-06T02:55:52;25.58;;;21.33;;
40453;SDS011;26160;51.858;4.398;2023-08-06T02:58:18;20.38;;;17.73;;
40453;SDS011;26160;51.858;4.398;2023-08-06T03:01:03;20.23;;;16.02;;
40453;SDS011;26160;51.858;4.398;2023-08-06T03:03:31;14.70;;;12.93;;
40453;SDS011;26160;51.858;4.398;2023-08-06T03:06:00;13.90;;;11.05;;
40453;SDS011;26160;51.858;4.398;2023-08-06T03:08:27;13.20;;;10.88;;
40453;SDS011;26160;51.858;4.398;2023-08-06T03:10:53;6.60;;;5.80;;
40453;SDS011;26160;51.858;4.398;2023-08-06T03:13:20;6.43;;;4.90;;
40453;SDS011;26160;51.858;4.398;2023-08-06T03:15:52;4.50;;;3.90;;
40453;SDS011;26160;51.858;4.398;2023-08-06T03:18:20;3.20;;;2.90;;
40453;SDS011;26160;51.858;4.398;2023-08-06T03:20:47;3.20;;;2.72;;
40453;SDS011;26160;51.858;4.398;2023-08-06T03:23:13;1.50;;;1.40;;
40453;SDS011;26160;51.858;4.398;2023-08-06T03:25:39;2.17;;;1.77;;
40453;SDS011;26160;51.858;4.398;2023-08-06T03:28:05;4.75;;;1.25;;
40453;SDS011;26160;51.858;4.398;2023-08-06T03:30:31;2.25;;;1.88;;
40453;SDS011;26160;51.858;4.398;2023-08-06T03:32:57;2.65;;;2.30;;
40453;SDS011;26160;51.858;4.398;2023-08-06T03:35:24;2.63;;;2.33;;
40453;SDS011;26160;51.858;4.398;2023-08-06T03:37:50;4.25;;;2.88;;
40453;SDS011;26160;51.858;4.398;2023-08-06T03:40:16;4.55;;;3.15;;
40453;SDS011;26160;51.858;4.398;2023-08-06T03:42:42;4.97;;;3.83;;
40453;SDS011;26160;51.858;4.398;2023-08-06T03:45:08;5.88;;;4.68;;
40453;SDS011;26160;51.858;4.398;2023-08-06T03:47:34;9.05;;;5.75;;
40453;SDS011;26160;51.858;4.398;2023-08-06T03:50:00;8.52;;;6.63;;
40453;SDS011;26160;51.858;4.398;2023-08-06T03:52:26;9.13;;;6.82;;
40453;SDS011;26160;51.858;4.398;2023-08-06T03:54:53;6.30;;;3.83;;
40453;SDS011;26160;51.858;4.398;2023-08-06T03:57:19;7.00;;;3.80;;
40453;SDS011;26160;51.858;4.398;2023-08-06T03:59:45;5.15;;;3.58;;
40453;SDS011;26160;51.858;4.398;2023-08-06T04:02:11;8.10;;;3.72;;
40453;SDS011;26160;51.858;4.398;2023-08-06T04:04:37;6.80;;;3.92;;
40453;SDS011;26160;51.858;4.398;2023-08-06T04:07:12;7.70;;;4.28;;
40453;SDS011;26160;51.858;4.398;2023-08-06T04:09:51;10.45;;;4.13;;
40453;SDS011;26160;51.858;4.398;2023-08-06T04:12:23;7.60;;;4.32;;
40453;SDS011;26160;51.858;4.398;2023-08-06T04:14:50;12.45;;;4.45;;
40453;SDS011;26160;51.858;4.398;2023-08-06T04:17:17;8.45;;;4.70;;
40453;SDS011;26160;51.858;4.398;2023-08-06T04:19:51;10.68;;;5.25;;
40453;SDS011;26160;51.858;4.398;2023-08-06T04:22:18;8.50;;;4.65;;
40453;SDS011;26160;51.858;4.398;2023-08-06T04:24:45;11.35;;;4.80;;
40453;SDS011;26160;51.858;4.398;2023-08-06T04:27:11;7.35;;;4.35;;
40453;SDS011;26160;51.858;4.398;2023-08-06T04:29:38;7.65;;;4.53;;
40453;SDS011;26160;51.858;4.398;2023-08-06T04:32:08;8.95;;;4.63;;
40453;SDS011;26160;51.858;4.398;2023-08-06T04:34:35;12.10;;;5.38;;
40453;SDS011;26160;51.858;4.398;2023-08-06T04:37:02;6.07;;;4.32;;
40453;SDS011;26160;51.858;4.398;2023-08-06T04:39:30;8.63;;;4.40;;
40453;SDS011;26160;51.858;4.398;2023-08-06T04:41:56;10.75;;;5.35;;
40453;SDS011;26160;51.858;4.398;2023-08-06T04:44:26;9.77;;;5.35;;
40453;SDS011;26160;51.858;4.398;2023-08-06T04:46:53;8.27;;;4.53;;
40453;SDS011;26160;51.858;4.398;2023-08-06T04:49:22;13.95;;;6.50;;
40453;SDS011;26160;51.858;4.398;2023-08-06T04:51:48;11.35;;;6.35;;
40453;SDS011;26160;51.858;4.398;2023-08-06T04:54:14;12.50;;;6.97;;
40453;SDS011;26160;51.858;4.398;2023-08-06T04:56:41;11.85;;;6.30;;
40453;SDS011;26160;51.858;4.398;2023-08-06T04:59:07;14.95;;;7.63;;
40453;SDS011;26160;51.858;4.398;2023-08-06T05:01:33;12.57;;;6.43;;
40453;SDS011;26160;51.858;4.398;2023-08-06T05:03:59;11.60;;;6.03;;
40453;SDS011;26160;51.858;4.398;2023-08-06T05:06:25;11.43;;;6.70;;
40453;SDS011;26160;51.858;4.398;2023-08-06T05:08:51;13.48;;;6.63;;
40453;SDS011;26160;51.858;4.398;2023-08-06T05:11:17;14.70;;;6.93;;
40453;SDS011;26160;51.858;4.398;2023-08-06T05:13:43;15.77;;;7.13;;
40453;SDS011;26160;51.858;4.398;2023-08-06T05:16:09;15.30;;;6.57;;
40453;SDS011;26160;51.858;4.398;2023-08-06T05:18:35;16.73;;;7.10;;
40453;SDS011;26160;51.858;4.398;2023-08-06T05:21:03;15.95;;;6.45;;
40453;SDS011;26160;51.858;4.398;2023-08-06T05:23:29;14.30;;;6.60;;
40453;SDS011;26160;51.858;4.398;2023-08-06T05:25:55;11.50;;;5.97;;
40453;SDS011;26160;51.858;4.398;2023-08-06T05:28:21;16.58;;;7.07;;
40453;SDS011;26160;51.858;4.398;2023-08-06T05:30:47;14.65;;;6.28;;
40453;SDS011;26160;51.858;4.398;2023-08-06T05:33:13;11.23;;;5.55;;
40453;SDS011;26160;51.858;4.398;2023-08-06T05:35:40;13.18;;;5.70;;
40453;SDS011;26160;51.858;4.398;2023-08-06T05:38:07;13.13;;;5.93;;
40453;SDS011;26160;51.858;4.398;2023-08-06T05:40:34;8.48;;;4.55;;
40453;SDS011;26160;51.858;4.398;2023-08-06T05:43:00;13.85;;;4.03;;
40453;SDS011;26160;51.858;4.398;2023-08-06T05:45:26;7.43;;;3.47;;
40453;SDS011;26160;51.858;4.398;2023-08-06T05:47:52;6.38;;;3.25;;
40453;SDS011;26160;51.858;4.398;2023-08-06T05:50:19;5.72;;;2.65;;
40453;SDS011;26160;51.858;4.398;2023-08-06T05:52:45;5.63;;;2.15;;
40453;SDS011;26160;51.858;4.398;2023-08-06T05:55:11;6.82;;;2.38;;
40453;SDS011;26160;51.858;4.398;2023-08-06T05:57:38;6.65;;;2.10;;
40453;SDS011;26160;51.858;4.398;2023-08-06T06:00:04;4.32;;;2.10;;
40453;SDS011;26160;51.858;4.398;2023-08-06T06:02:32;5.93;;;2.08;;
40453;SDS011;26160;51.858;4.398;2023-08-06T06:04:58;10.27;;;2.28;;
40453;SDS011;26160;51.858;4.398;2023-08-06T06:07:24;7.22;;;2.28;;
40453;SDS011;26160;51.858;4.398;2023-08-06T06:09:50;9.48;;;2.95;;
40453;SDS011;26160;51.858;4.398;2023-08-06T06:12:16;7.53;;;2.50;;
40453;SDS011;26160;51.858;4.398;2023-08-06T06:14:42;7.70;;;1.77;;
40453;SDS011;26160;51.858;4.398;2023-08-06T06:17:08;7.35;;;2.40;;
40453;SDS011;26160;51.858;4.398;2023-08-06T06:19:34;7.93;;;2.35;;
40453;SDS011;26160;51.858;4.398;2023-08-06T06:22:00;3.63;;;1.92;;
40453;SDS011;26160;51.858;4.398;2023-08-06T06:24:26;5.60;;;2.20;;
40453;SDS011;26160;51.858;4.398;2023-08-06T06:26:52;7.10;;;2.58;;
40453;SDS011;26160;51.858;4.398;2023-08-06T06:29:19;9.80;;;2.92;;
40453;SDS011;26160;51.858;4.398;2023-08-06T06:31:45;8.30;;;2.75;;
40453;SDS011;26160;51.858;4.398;2023-08-06T06:34:11;8.30;;;2.80;;
40453;SDS011;26160;51.858;4.398;2023-08-06T06:36:37;9.65;;;3.42;;
40453;SDS011;26160;51.858;4.398;2023-08-06T06:39:03;6.85;;;3.03;;
40453;SDS011;26160;51.858;4.398;2023-08-06T06:41:29;6.65;;;2.88;;
40453;SDS011;26160;51.858;4.398;2023-08-06T06:43:57;6.88;;;3.17;;
40453;SDS011;26160;51.858;4.398;2023-08-06T06:46:23;7.97;;;2.95;;
40453;SDS011;26160;51.858;4.398;2023-08-06T06:48:49;13.57;;;3.80;;
40453;SDS011;26160;51.858;4.398;2023-08-06T06:51:15;13.85;;;3.38;;
40453;SDS011;26160;51.858;4.398;2023-08-06T06:53:41;10.43;;;3.40;;
40453;SDS011;26160;51.858;4.398;2023-08-06T06:56:07;5.72;;;3.00;;
40453;SDS011;26160;51.858;4.398;2023-08-06T06:58:34;4.38;;;2.45;;
40453;SDS011;26160;51.858;4.398;2023-08-06T07:01:00;7.60;;;3.67;;
40453;SDS011;26160;51.858;4.398;2023-08-06T07:03:26;4.68;;;3.10;;
40453;SDS011;26160;51.858;4.398;2023-08-06T07:05:56;5.60;;;2.83;;
40453;SDS011;26160;51.858;4.398;2023-08-06T07:08:26;8.35;;;3.08;;
40453;SDS011;26160;51.858;4.398;2023-08-06T07:11:02;5.88;;;2.55;;
40453;SDS011;26160;51.858;4.398;2023-08-06T07:13:29;6.70;;;2.60;;
40453;SDS011;26160;51.858;4.398;2023-08-06T07:15:56;8.40;;;2.30;;
40453;SDS011;26160;51.858;4.398;2023-08-06T07:18:22;6.55;;;2.20;;
40453;SDS011;26160;51.858;4.398;2023-08-06T07:20:49;7.32;;;1.98;;
40453;SDS011;26160;51.858;4.398;2023-08-06T07:23:15;11.05;;;2.17;;
40453;SDS011;26160;51.858;4.398;2023-08-06T07:25:42;8.40;;;1.80;;
40453;SDS011;26160;51.858;4.398;2023-08-06T07:28:09;6.47;;;2.00;;
40453;SDS011;26160;51.858;4.398;2023-08-06T07:30:38;9.00;;;1.65;;
40453;SDS011;26160;51.858;4.398;2023-08-06T07:33:04;4.07;;;2.00;;
40453;SDS011;26160;51.858;4.398;2023-08-06T07:35:30;9.27;;;2.30;;
40453;SDS011;26160;51.858;4.398;2023-08-06T07:37:57;3.03;;;1.25;;
40453;SDS011;26160;51.858;4.398;2023-08-06T07:40:23;6.13;;;1.33;;
40453;SDS011;26160;51.858;4.398;2023-08-06T07:42:49;4.53;;;1.33;;
40453;SDS011;26160;51.858;4.398;2023-08-06T07:45:15;5.90;;;1.17;;
40453;SDS011;26160;51.858;4.398;2023-08-06T07:47:42;8.05;;;1.90;;
40453;SDS011;26160;51.858;4.398;2023-08-06T07:50:08;6.15;;;1.65;;
40453;SDS011;26160;51.858;4.398;2023-08-06T07:52:35;3.22;;;1.30;;
40453;SDS011;26160;51.858;4.398;2023-08-06T07:55:01;8.15;;;1.55;;
40453;SDS011;26160;51.858;4.398;2023-08-06T07:57:33;7.43;;;1.52;;
40453;SDS011;26160;51.858;4.398;2023-08-06T08:00:00;5.57;;;1.27;;
40453;SDS011;26160;51.858;4.398;2023-08-06T08:02:27;5.97;;;1.45;;
40453;SDS011;26160;51.858;4.398;2023-08-06T08:04:53;6.07;;;1.40;;
40453;SDS011;26160;51.858;4.398;2023-08-06T08:07:19;6.95;;;1.70;;
40453;SDS011;26160;51.858;4.398;2023-08-06T08:09:46;6.60;;;0.82;;
40453;SDS011;26160;51.858;4.398;2023-08-06T08:12:13;8.82;;;1.40;;
40453;SDS011;26160;51.858;4.398;2023-08-06T08:14:39;7.05;;;0.85;;
40453;SDS011;26160;51.858;4.398;2023-08-06T08:17:06;4.40;;;0.95;;
40453;SDS011;26160;51.858;4.398;2023-08-06T08:19:32;3.92;;;0.90;;
40453;SDS011;26160;51.858;4.398;2023-08-06T08:21:58;4.32;;;1.00;;
40453;SDS011;26160;51.858;4.398;2023-08-06T08:24:25;5.05;;;1.27;;
40453;SDS011;26160;51.858;4.398;2023-08-06T08:26:51;7.63;;;1.23;;
40453;SDS011;26160;51.858;4.398;2023-08-06T08:29:19;7.43;;;1.70;;
40453;SDS011;26160;51.858;4.398;2023-08-06T08:31:45;3.88;;;1.10;;
40453;SDS011;26160;51.858;4.398;2023-08-06T08:34:13;5.18;;;1.20;;
40453;SDS011;26160;51.858;4.398;2023-08-06T08:36:39;2.55;;;1.10;;
40453;SDS011;26160;51.858;4.398;2023-08-06T08:39:05;5.35;;;1.50;;
40453;SDS011;26160;51.858;4.398;2023-08-06T08:41:32;7.55;;;1.48;;
40453;SDS011;26160;51.858;4.398;2023-08-06T08:44:00;5.30;;;1.00;;
40453;SDS011;26160;51.858;4.398;2023-08-06T08:46:28;5.65;;;1.30;;
40453;SDS011;26160;51.858;4.398;2023-08-06T08:48:56;7.63;;;1.33;;
40453;SDS011;26160;51.858;4.398;2023-08-06T08:51:25;6.82;;;1.40;;
40453;SDS011;26160;51.858;4.398;2023-08-06T08:53:53;4.93;;;1.40;;
40453;SDS011;26160;51.858;4.398;2023-08-06T08:56:23;4.85;;;1.58;;
40453;SDS011;26160;51.858;4.398;2023-08-06T08:58:50;3.50;;;1.10;;
40453;SDS011;26160;51.858;4.398;2023-08-06T09:01:18;4.95;;;1.52;;
40453;SDS011;26160;51.858;4.398;2023-08-06T09:03:46;4.38;;;1.10;;
40453;SDS011;26160;51.858;4.398;2023-08-06T09:06:12;5.25;;;1.48;;
40453;SDS011;26160;51.858;4.398;2023-08-06T09:08:41;5.72;;;1.38;;
40453;SDS011;26160;51.858;4.398;2023-08-06T09:11:15;6.82;;;1.48;;
40453;SDS011;26160;51.858;4.398;2023-08-06T09:13:42;2.85;;;1.27;;
40453;SDS011;26160;51.858;4.398;2023-08-06T09:16:09;7.47;;;1.30;;
40453;SDS011;26160;51.858;4.398;2023-08-06T09:18:35;8.95;;;1.85;;
40453;SDS011;26160;51.858;4.398;2023-08-06T09:21:04;4.03;;;1.23;;
40453;SDS011;26160;51.858;4.398;2023-08-06T09:23:31;4.82;;;1.65;;
40453;SDS011;26160;51.858;4.398;2023-08-06T09:25:58;2.22;;;1.02;;
40453;SDS011;26160;51.858;4.398;2023-08-06T09:28:36;4.85;;;1.20;;
40453;SDS011;26160;51.858;4.398;2023-08-06T09:31:07;4.28;;;1.33;;
40453;SDS011;26160;51.858;4.398;2023-08-06T09:33:35;3.10;;;1.33;;
40453;SDS011;26160;51.858;4.398;2023-08-06T09:36:12;3.90;;;1.30;;
40453;SDS011;26160;51.858;4.398;2023-08-06T09:38:39;3.33;;;1.20;;
40453;SDS011;26160;51.858;4.398;2023-08-06T09:41:06;2.53;;;0.80;;
40453;SDS011;26160;51.858;4.398;2023-08-06T09:43:39;3.22;;;1.10;;
40453;SDS011;26160;51.858;4.398;2023-08-06T09:46:13;5.13;;;1.35;;
40453;SDS011;26160;51.858;4.398;2023-08-06T09:48:39;4.30;;;1.20;;
40453;SDS011;26160;51.858;4.398;2023-08-06T09:51:07;2.20;;;1.38;;
40453;SDS011;26160;51.858;4.398;2023-08-06T09:53:34;2.80;;;1.20;;
40453;SDS011;26160;51.858;4.398;2023-08-06T09:56:02;4.45;;;1.42;;
40453;SDS011;26160;51.858;4.398;2023-08-06T09:58:29;3.05;;;1.30;;
40453;SDS011;26160;51.858;4.398;2023-08-06T10:00:58;3.47;;;1.30;;
40453;SDS011;26160;51.858;4.398;2023-08-06T10:03:25;4.30;;;1.30;;
40453;SDS011;26160;51.858;4.398;2023-08-06T10:05:51;4.88;;;1.60;;
40453;SDS011;26160;51.858;4.398;2023-08-06T10:08:18;5.90;;;1.60;;
40453;SDS011;26160;51.858;4.398;2023-08-06T10:10:44;2.50;;;1.10;;
40453;SDS011;26160;51.858;4.398;2023-08-06T10:13:11;4.05;;;1.38;;
40453;SDS011;26160;51.858;4.398;2023-08-06T10:15:39;3.33;;;1.27;;
40453;SDS011;26160;51.858;4.398;2023-08-06T10:18:05;4.00;;;1.60;;
40453;SDS011;26160;51.858;4.398;2023-08-06T10:20:32;4.45;;;1.45;;
40453;SDS011;26160;51.858;4.398;2023-08-06T10:23:02;3.00;;;1.30;;
40453;SDS011;26160;51.858;4.398;2023-08-06T10:25:33;3.08;;;1.55;;
40453;SDS011;26160;51.858;4.398;2023-08-06T10:28:00;2.88;;;1.20;;
40453;SDS011;26160;51.858;4.398;2023-08-06T10:30:32;3.58;;;1.88;;
40453;SDS011;26160;51.858;4.398;2023-08-06T10:33:00;4.07;;;1.40;;
40453;SDS011;26160;51.858;4.398;2023-08-06T10:38:15;7.80;;;1.85;;
40453;SDS011;26160;51.858;4.398;2023-08-06T10:40:49;5.45;;;1.38;;
40453;SDS011;26160;51.858;4.398;2023-08-06T10:45:55;5.55;;;1.52;;
40453;SDS011;26160;51.858;4.398;2023-08-06T10:48:38;6.80;;;1.30;;
40453;SDS011;26160;51.858;4.398;2023-08-06T10:51:11;5.63;;;1.52;;
40453;SDS011;26160;51.858;4.398;2023-08-06T10:53:43;10.70;;;1.80;;
40453;SDS011;26160;51.858;4.398;2023-08-06T10:56:16;9.75;;;1.50;;
40453;SDS011;26160;51.858;4.398;2023-08-06T10:58:44;4.63;;;1.20;;
40453;SDS011;26160;51.858;4.398;2023-08-06T11:01:11;5.03;;;1.38;;
40453;SDS011;26160;51.858;4.398;2023-08-06T11:03:37;4.55;;;1.27;;
40453;SDS011;26160;51.858;4.398;2023-08-06T11:06:06;5.95;;;1.13;;
40453;SDS011;26160;51.858;4.398;2023-08-06T11:08:34;6.18;;;1.73;;
40453;SDS011;26160;51.858;4.398;2023-08-06T11:11:07;2.50;;;1.00;;
40453;SDS011;26160;51.858;4.398;2023-08-06T11:13:42;4.53;;;1.05;;
40453;SDS011;26160;51.858;4.398;2023-08-06T11:16:10;7.63;;;1.20;;
40453;SDS011;26160;51.858;4.398;2023-08-06T11:18:36;4.72;;;1.20;;
40453;SDS011;26160;51.858;4.398;2023-08-06T11:21:02;4.43;;;1.05;;
40453;SDS011;26160;51.858;4.398;2023-08-06T11:23:28;4.03;;;1.20;;
40453;SDS011;26160;51.858;4.398;2023-08-06T11:25:56;3.95;;;1.65;;
40453;SDS011;26160;51.858;4.398;2023-08-06T11:28:22;5.60;;;1.42;;
40453;SDS011;26160;51.858;4.398;2023-08-06T11:30:49;4.68;;;1.27;;
40453;SDS011;26160;51.858;4.398;2023-08-06T11:35:51;8.43;;;1.27;;
40453;SDS011;26160;51.858;4.398;2023-08-06T11:38:18;4.63;;;1.08;;
40453;SDS011;26160;51.858;4.398;2023-08-06T11:40:44;1.65;;;0.70;;
40453;SDS011;26160;51.858;4.398;2023-08-06T11:43:14;5.88;;;1.00;;
40453;SDS011;26160;51.858;4.398;2023-08-06T11:45:40;5.13;;;1.23;;
40453;SDS011;26160;51.858;4.398;2023-08-06T11:48:07;2.17;;;0.85;;
40453;SDS011;26160;51.858;4.398;2023-08-06T11:50:37;4.53;;;1.45;;
40453;SDS011;26160;51.858;4.398;2023-08-06T11:53:06;1.85;;;0.68;;
40453;SDS011;26160;51.858;4.398;2023-08-06T11:55:32;3.05;;;1.10;;
40453;SDS011;26160;51.858;4.398;2023-08-06T11:58:02;2.45;;;1.08;;
40453;SDS011;26160;51.858;4.398;2023-08-06T12:00:30;6.32;;;1.50;;
40453;SDS011;26160;51.858;4.398;2023-08-06T12:02:56;9.98;;;2.05;;
40453;SDS011;26160;51.858;4.398;2023-08-06T12:05:30;4.93;;;1.30;;
40453;SDS011;26160;51.858;4.398;2023-08-06T12:07:59;6.05;;;1.60;;
40453;SDS011;26160;51.858;4.398;2023-08-06T12:10:26;2.70;;;1.50;;
40453;SDS011;26160;51.858;4.398;2023-08-06T12:12:54;2.83;;;1.10;;
40453;SDS011;26160;51.858;4.398;2023-08-06T12:15:21;3.42;;;1.20;;
40453;SDS011;26160;51.858;4.398;2023-08-06T12:17:48;3.42;;;1.33;;
40453;SDS011;26160;51.858;4.398;2023-08-06T12:20:14;3.83;;;1.25;;
40453;SDS011;26160;51.858;4.398;2023-08-06T12:22:40;2.33;;;0.93;;
40453;SDS011;26160;51.858;4.398;2023-08-06T12:25:07;2.50;;;0.88;;
40453;SDS011;26160;51.858;4.398;2023-08-06T12:27:37;3.70;;;0.88;;
40453;SDS011;26160;51.858;4.398;2023-08-06T12:30:05;2.30;;;1.00;;
40453;SDS011;26160;51.858;4.398;2023-08-06T12:32:32;4.10;;;1.00;;
40453;SDS011;26160;51.858;4.398;2023-08-06T12:34:59;3.17;;;0.73;;
40453;SDS011;26160;51.858;4.398;2023-08-06T12:37:26;3.67;;;1.10;;
40453;SDS011;26160;51.858;4.398;2023-08-06T12:39:54;8.18;;;1.05;;
40453;SDS011;26160;51.858;4.398;2023-08-06T12:42:20;4.05;;;1.00;;
40453;SDS011;26160;51.858;4.398;2023-08-06T12:44:48;3.72;;;0.98;;
40453;SDS011;26160;51.858;4.398;2023-08-06T12:47:14;4.85;;;1.00;;
40453;SDS011;26160;51.858;4.398;2023-08-06T12:49:41;4.03;;;0.88;;
40453;SDS011;26160;51.858;4.398;2023-08-06T12:52:07;2.55;;;0.75;;
40453;SDS011;26160;51.858;4.398;2023-08-06T12:54:34;4.00;;;0.95;;
40453;SDS011;26160;51.858;4.398;2023-08-06T12:57:02;3.42;;;0.75;;
40453;SDS011;26160;51.858;4.398;2023-08-06T12:59:28;2.30;;;0.68;;
40453;SDS011;26160;51.858;4.398;2023-08-06T13:01:55;3.20;;;0.95;;
40453;SDS011;26160;51.858;4.398;2023-08-06T13:04:21;1.48;;;0.57;;
40453;SDS011;26160;51.858;4.398;2023-08-06T13:06:47;3.28;;;0.60;;
40453;SDS011;26160;51.858;4.398;2023-08-06T13:09:13;2.95;;;0.57;;
40453;SDS011;26160;51.858;4.398;2023-08-06T13:11:40;2.60;;;0.57;;
40453;SDS011;26160;51.858;4.398;2023-08-06T13:14:11;4.30;;;1.10;;
40453;SDS011;26160;51.858;4.398;2023-08-06T13:16:39;7.65;;;1.70;;
40453;SDS011;26160;51.858;4.398;2023-08-06T13:19:06;6.25;;;1.50;;
40453;SDS011;26160;51.858;4.398;2023-08-06T13:21:34;7.78;;;1.63;;
40453;SDS011;26160;51.858;4.398;2023-08-06T13:24:01;10.10;;;2.75;;
40453;SDS011;26160;51.858;4.398;2023-08-06T13:26:29;9.23;;;2.08;;
40453;SDS011;26160;51.858;4.398;2023-08-06T13:28:58;8.70;;;1.40;;
40453;SDS011;26160;51.858;4.398;2023-08-06T13:31:25;12.48;;;2.10;;
40453;SDS011;26160;51.858;4.398;2023-08-06T13:33:53;11.98;;;1.88;;
40453;SDS011;26160;51.858;4.398;2023-08-06T13:36:21;8.20;;;1.85;;
40453;SDS011;26160;51.858;4.398;2023-08-06T13:38:48;12.52;;;1.92;;
40453;SDS011;26160;51.858;4.398;2023-08-06T13:41:15;11.40;;;1.98;;
40453;SDS011;26160;51.858;4.398;2023-08-06T13:43:41;12.68;;;1.80;;
40453;SDS011;26160;51.858;4.398;2023-08-06T13:46:08;11.55;;;1.60;;
40453;SDS011;26160;51.858;4.398;2023-08-06T13:48:34;11.10;;;2.08;;
40453;SDS011;26160;51.858;4.398;2023-08-06T13:51:00;11.85;;;2.35;;
40453;SDS011;26160;51.858;4.398;2023-08-06T13:53:27;11.45;;;3.05;;
40453;SDS011;26160;51.858;4.398;2023-08-06T13:55:56;12.35;;;1.88;;
40453;SDS011;26160;51.858;4.398;2023-08-06T13:58:24;14.52;;;2.35;;
40453;SDS011;26160;51.858;4.398;2023-08-06T14:00:52;17.85;;;2.53;;
40453;SDS011;26160;51.858;4.398;2023-08-06T14:03:20;13.38;;;2.38;;
40453;SDS011;26160;51.858;4.398;2023-08-06T14:05:46;10.05;;;2.25;;
40453;SDS011;26160;51.858;4.398;2023-08-06T14:08:12;17.52;;;2.20;;
40453;SDS011;26160;51.858;4.398;2023-08-06T14:10:39;15.60;;;2.70;;
40453;SDS011;26160;51.858;4.398;2023-08-06T14:13:05;9.95;;;1.80;;
40453;SDS011;26160;51.858;4.398;2023-08-06T14:15:31;12.40;;;1.80;;
40453;SDS011;26160;51.858;4.398;2023-08-06T14:17:58;12.20;;;2.35;;
40453;SDS011;26160;51.858;4.398;2023-08-06T14:20:24;10.80;;;2.10;;
40453;SDS011;26160;51.858;4.398;2023-08-06T14:22:50;12.48;;;2.08;;
40453;SDS011;26160;51.858;4.398;2023-08-06T14:25:17;13.50;;;2.28;;
40453;SDS011;26160;51.858;4.398;2023-08-06T14:27:43;11.90;;;2.33;;
40453;SDS011;26160;51.858;4.398;2023-08-06T14:30:09;14.18;;;2.25;;
40453;SDS011;26160;51.858;4.398;2023-08-06T14:32:36;13.63;;;2.00;;
40453;SDS011;26160;51.858;4.398;2023-08-06T14:35:02;9.80;;;1.83;;
40453;SDS011;26160;51.858;4.398;2023-08-06T14:37:28;10.68;;;2.08;;
40453;SDS011;26160;51.858;4.398;2023-08-06T14:39:54;11.57;;;1.90;;
40453;SDS011;26160;51.858;4.398;2023-08-06T14:42:20;10.57;;;2.35;;
40453;SDS011;26160;51.858;4.398;2023-08-06T14:44:46;8.68;;;1.75;;
40453;SDS011;26160;51.858;4.398;2023-08-06T14:47:13;10.00;;;2.30;;
40453;SDS011;26160;51.858;4.398;2023-08-06T14:49:39;12.13;;;2.20;;
40453;SDS011;26160;51.858;4.398;2023-08-06T14:52:05;12.18;;;1.50;;
40453;SDS011;26160;51.858;4.398;2023-08-06T14:54:40;13.60;;;1.83;;